WEATHER DATA

YESTERDAY
Time Temp. Dewp. Hum. Wind dir Wind speed Wind gust Bar. 1h Prec. 24h Prec.
00:03 11.2 9.3 88 90 0.3 0.6 1021 0.0000 0.0000
00:13 11.2 9.5 89 129 0.3 0.8 1021 0.0000 0.0000
00:23 11.2 9.6 90 90 0.3 0.6 1021 0.0000 0.0000
00:33 11.3 9.7 90 90 0.3 0.6 1021.1 0.0000 0.0000
00:44 11.4 10 91 90 0.3 0.6 1021.1 0.0000 0.0000
01:14 11.6 10.3 92 90 0.3 0.8 1021.1 0.0000 0.0000
01:24 11.6 10.3 92 90 0.3 0.6 1021.1 0.0000 0.0000
01:34 11.7 10.4 92 90 0.3 0.6 1021.1 0.0000 0.0000
01:44 11.7 10.4 92 90 0.3 0.6 1021 0.0000 0.0000
01:54 11.7 10.6 93 90 0.3 0.6 1020.9 0.0000 0.0000
02:04 11.8 10.7 93 90 0.3 0.6 1020.9 0.0000 0.0000
02:14 11.8 10.7 93 123 0.3 0.8 1020.8 0.0000 0.0000
02:25 11.8 10.7 93 90 0.3 0.6 1020.8 0.0000 0.0000
02:34 11.9 10.8 93 90 0.3 1.1 1020.7 0.0000 0.0000
02:44 11.9 10.8 93 90 0.3 0.8 1020.6 0.0000 0.0000
02:54 11.9 11 94 90 0.3 0.8 1020.6 0.0000 0.0000
03:05 12 11.1 94 90 0.3 0.6 1020.7 0.0000 0.0000
03:15 12 11.1 94 122 0.3 0.8 1020.7 0.0000 0.0000
03:25 12 11.1 94 90 0.3 0.6 1020.7 0.0000 0.0000
03:34 12 11.1 94 90 0.3 0.6 1020.7 0.0000 0.0000
03:45 11.9 11 94 90 0.3 0.6 1020.6 0.0000 0.0000
03:55 11.9 11 94 90 0.3 0.6 1020.6 0.0000 0.0000
04:05 11.8 10.9 94 123 0.3 0.6 1020.6 0.0000 0.0000
04:15 11.7 10.8 94 90 0.3 0.6 1020.5 0.0000 0.0000
04:25 11.6 10.7 94 90 0.3 0.8 1020.5 0.0000 0.0000
04:35 11.6 10.7 94 90 0.3 0.6 1020.5 0.0000 0.0000
04:45 11.6 10.8 95 135 0.3 0.6 1020.6 0.0000 0.0000
04:55 11.6 10.8 95 135 0.3 0.6 1020.6 0.0000 0.0000
05:06 11.6 10.8 95 135 0.3 0.6 1020.6 0.0000 0.0000
05:14 11.6 10.8 95 124 0.3 0.6 1020.6 0.0000 0.0000
05:25 11.7 10.9 95 90 0.3 0.6 1020.6 0.0000 0.0000
05:36 11.8 11 95 135 0.3 0.6 1020.7 0.0000 0.0000
05:46 11.8 11 95 127 0.3 0.6 1020.8 0.0000 0.0000
05:55 11.8 11 95 90 0.3 0.8 1020.8 0.0000 0.0000
06:06 11.9 11.1 95 90 0.3 1.1 1020.7 0.0000 0.0000
06:16 12 11.2 95 90 0.3 0.6 1020.6 0.0000 0.0000
06:26 12 11.2 95 90 0.3 0.6 1020.7 0.0000 0.0000
06:36 12 11.2 95 90 0.3 0.6 1020.6 0.0000 0.0000
06:46 12.1 11.3 95 90 0.3 0.6 1020.6 0.0000 0.0000
06:56 12.1 11.3 95 90 0.3 0.8 1020.7 0.0000 0.0000
07:06 12.1 11.5 96 90 0.3 0.6 1020.8 0.0000 0.0000
07:16 12.1 11.5 96 90 0.3 0.6 1020.9 0.0000 0.0000
07:27 12.1 11.5 96 90 0.3 0.6 1020.9 0.0000 0.0000
07:36 12.1 11.5 96 90 0.3 0.8 1020.9 0.0000 0.0000
07:46 12.1 11.5 96 123 0.3 0.6 1020.9 0.0000 0.0000
07:57 12.2 11.6 96 90 0.3 0.6 1020.9 0.0000 0.0000
08:07 12.2 11.6 96 90 0.3 0.6 1021 0.0000 0.0000
08:17 12.2 11.6 96 90 0.3 0.6 1021.1 0.0000 0.0000
08:26 12.3 11.7 96 90 0.3 1.1 1021.1 0.0000 0.0000
08:37 12.3 11.7 96 90 0.3 0.6 1021 0.0000 0.0000
08:47 12.3 11.7 96 90 0.3 0.6 1021 0.0000 0.0000
08:57 12.3 11.7 96 90 0.3 0.8 1021.2 0.0000 0.0000
09:07 12.4 11.8 96 90 0.3 0.8 1021.3 0.0000 0.0000
09:17 12.4 11.8 96 90 0.3 0.8 1021.3 0.0000 0.0000
09:27 12.5 11.9 96 90 0.3 0.6 1021.3 0.0000 0.0000
09:37 12.5 11.9 96 90 0.3 0.6 1021.3 0.0000 0.0000
09:48 12.5 11.9 96 90 0.3 1.1 1021.3 0.0000 0.0000
09:57 12.6 12 96 90 0.3 0.8 1021.4 0.0000 0.0000
10:07 12.7 12.1 96 90 0.3 0.8 1021.4 0.0000 0.0000
10:18 12.8 12.2 96 90 0.3 0.8 1021.4 0.0000 0.0000
10:28 12.8 12.2 96 90 0.3 1.1 1021.4 0.0000 0.0000
10:38 12.9 12.3 96 90 0.3 0.8 1021.5 0.0000 0.0000
10:47 13 12.4 96 90 0.3 1.7 1021.6 0.0000 0.0000
10:58 13.1 12.5 96 90 0.3 0.8 1021.5 0.0000 0.0000
11:08 13.2 12.6 96 126 0.3 1.1 1021.6 0.0000 0.0000
11:18 13.2 12.6 96 124 0.3 1.1 1021.7 0.0000 0.0000
11:28 13.3 12.7 96 90 0.3 0.8 1021.8 0.0000 0.0000
11:38 13.4 12.8 96 90 0.3 1.1 1021.8 0.0000 0.0000
11:48 13.4 12.8 96 118 0.6 1.4 1021.9 0.0000 0.0000
11:58 13.4 12.8 96 128 0.6 1.4 1021.8 0.0000 0.0000
12:09 13.5 12.9 96 90 0.3 0.6 1021.7 0.0000 0.0000
12:19 13.6 13 96 135 0.3 0.8 1021.7 0.0000 0.0000
12:28 13.6 13 96 135 0.6 1.4 1021.8 0.0000 0.0000
12:39 13.6 13 96 135 0.6 1.1 1021.8 0.1010 0.1000
12:49 13.6 13 96 126 0.6 1.4 1021.8 0.1010 0.1000
12:59 13.6 13 96 114 0.6 1.1 1021.7 0.1010 0.1000
13:08 13.7 13.1 96 146 0.6 1.4 1021.8 0.1010 0.1000
13:19 13.7 13.1 96 135 0.6 1.4 1021.9 0.1010 0.1000
13:29 13.8 13.2 96 130 0.6 1.1 1021.9 0.1010 0.1000
13:39 13.7 13.1 96 142 0.3 0.6 1021.9 0.0000 0.1000
13:49 13.8 13.2 96 154 0.3 0.8 1021.9 0.0000 0.1000
14:00 13.8 13.2 96 135 0.3 0.8 1021.9 0.0000 0.1000
14:09 13.9 13.3 96 143 0.6 1.4 1021.8 0.0000 0.1000
14:19 14 13.4 96 131 0.6 1.1 1021.9 0.0000 0.1000
14:30 14 13.2 95 120 0.6 1.1 1021.8 0.0000 0.1000
14:40 14 13.2 95 146 0.6 1.9 1021.8 0.0000 0.1000
14:50 14.1 13.3 95 144 0.6 1.1 1021.8 0.0000 0.1000
15:00 14.1 13.3 95 139 0.8 1.4 1021.7 0.0000 0.1000
15:10 14 13.2 95 146 0.8 1.7 1021.7 0.0000 0.1000
15:20 14 13.2 95 133 0.8 2.5 1021.8 0.0000 0.1000
15:30 14 13.2 95 118 0.8 1.9 1021.8 0.0000 0.1000
15:41 14 13.1 94 121 0.6 1.4 1021.8 0.0000 0.1000
15:50 13.9 13 94 128 0.8 1.4 1021.9 0.0000 0.1000
16:00 13.8 12.9 94 135 0.8 2.8 1021.9 0.0000 0.1000
16:10 13.7 12.8 94 118 0.6 1.1 1021.9 0.0000 0.1000
16:21 13.7 12.8 94 135 0.8 2.2 1021.8 0.0000 0.1000
16:31 13.6 12.7 94 146 0.8 2.2 1021.6 0.0000 0.1000
16:40 13.5 12.6 94 130 0.6 1.7 1021.9 0.0000 0.1000
16:51 13.5 12.6 94 121 0.8 1.7 1021.8 0.0000 0.1000
17:01 13.4 12.5 94 120 0.6 1.9 1021.8 0.0000 0.1000
17:11 13.4 12.5 94 146 0.6 1.1 1021.6 0.0000 0.1000
17:21 13.3 12.4 94 131 0.6 1.4 1021.7 0.0000 0.1000
17:31 13.3 12.5 95 132 0.8 1.9 1021.9 0.0000 0.1000
17:41 13.3 12.5 95 132 0.6 1.9 1021.7 0.0000 0.1000
17:51 13.3 12.5 95 138 0.6 1.1 1021.8 0.0000 0.1000
18:02 13.2 12.4 95 138 0.6 1.1 1021.8 0.0000 0.1000
18:12 13.2 12.4 95 137 0.6 1.9 1021.7 0.0000 0.1000
18:21 13.2 12.4 95 124 0.6 1.1 1021.9 0.0000 0.1000
18:31 13.2 12.4 95 90 0.3 0.8 1021.8 0.0000 0.1000
18:42 13.2 12.4 95 113 0.6 1.4 1022.1 0.0000 0.1000
18:51 13.1 12.3 95 90 0.3 0.8 1022 0.0000 0.1000
19:02 13.1 12.3 95 124 0.6 1.1 1022.1 0.0000 0.1000
19:12 13 12.2 95 90 0.3 0.8 1022.2 0.0000 0.1000
19:22 13 12.2 95 130 0.3 0.8 1022.1 0.0000 0.1000
19:32 13 12.2 95 118 0.6 1.1 1022.2 0.0000 0.1000
19:42 12.9 12.1 95 117 0.6 2.2 1022.2 0.0000 0.1000
20:02 12.9 12.1 95 90 0.3 0.8 1022.3 0.0000 0.1000
20:12 12.8 12 95 135 0.6 1.7 1022.3 0.0000 0.1000
20:22 12.8 12 95 125 0.6 1.4 1022.5 0.0000 0.1000
20:33 12.8 12 95 132 0.6 1.9 1022.4 0.0000 0.1000
20:42 12.7 11.9 95 90 0.3 0.8 1022.4 0.0000 0.1000
21:03 12.7 11.9 95 122 0.3 1.4 1022.5 0.0000 0.1000
21:13 12.6 11.8 95 130 0.3 1.1 1022.4 0.0000 0.1000
21:23 12.6 11.8 95 125 0.3 0.8 1022.5 0.0000 0.1000
21:33 12.6 11.8 95 90 0.3 1.1 1022.8 0.0000 0.1000
21:43 12.5 11.7 95 135 0.3 0.8 1022.8 0.0000 0.1000
22:03 12.5 11.7 95 90 0.3 0.8 1022.7 0.0000 0.1000
22:14 12.4 11.6 95 90 0.3 1.1 1022.8 0.0000 0.1000
22:23 12.4 11.6 95 90 0.3 0.8 1022.9 0.0000 0.1000
22:33 12.4 11.6 95 90 0.3 1.1 1022.8 0.0000 0.1000
22:43 12.4 11.6 95 90 0.3 1.1 1022.7 0.0000 0.1000
22:54 12.4 11.6 95 90 0.3 1.1 1022.8 0.0000 0.1000
23:04 12.3 11.5 95 90 0.3 0.8 1022.8 0.0000 0.1000
23:13 12.3 11.5 95 122 0.3 0.8 1022.8 0.0000 0.1000
23:24 12.3 11.5 95 90 0.3 0.8 1022.7 0.0000 0.1000
23:34 12.3 11.5 95 131 0.3 1.1 1022.8 0.0000 0.1000
23:54 12.2 11.6 96 90 0.3 0.6 1022.7 0.0000 0.1000

DAY STATISTIC

2020-09-29
TEMPERATURE
AVERAGE
12.7
HIGH
14.1
14:50
LOW
11.2
00:03
PRESSURE
AVERAGE
1021.5
HIGH
1022.9
22:23
LOW
1020.5
04:15
DEWPOINT
AVERAGE
11.9
HIGH
13.4
14:19
LOW
9.3
00:03
HUMIDITY
AVERAGE
95
HIGH
96
07:06
LOW
88
00:03
WIND SPEED
AVERAGE
0.4
HIGH
0.8
15:00
WIND GUST
AVERAGE
1.0
HIGH
2.8
16:00
WIND DIRECTION
PREVAILING
E
51.8%
N
0.0
NE
0.0
E
51.8
SE
48.2
S
0.0
SW
0.0
W
0.0
NW
0.0
PRECIPITATION
RAIN HOUR
0.1
RAIN DAY
0.1
TEMPERATURE (°C)
LOW
11.2
HIGH
14.1
AVERAGE
12.7
PRESSURE (hpa)
LOW
1020.5
HIGH
1022.9
AVERAGE
1021.5
DEVICE